ADDS METAR Data INFO
IDs: Format: Raw Decoded Include TAF

Data at: 0022 UTC 23 Jan 2018

KHTS 222351Z 14006KT 10SM FEW070 SCT110 15/07 A2975 RMK AO2 RAE06 SLP073 P0000 60002 T01500072 10194 20144 58026
KHTS 222251Z 15007KT 10SM -RA BKN080 OVC100 15/09 A2978 RMK AO2 SLP083 P0001 T01500089
KHTS 222151Z 16006KT 10SM -RA BKN080 OVC095 16/08 A2982 RMK AO2 RAB2053 SLP093 P0001 T01560078
KHTS 222051Z 20010KT 10SM FEW060 BKN090 OVC100 18/04 A2983 RMK AO2 SLP098 T01830044 58015
KHTS 221951Z 23013G21KT 10SM SCT110 19/04 A2985 RMK AO2 SLP105 T01890044
KHTS 221851Z 20007G19KT 10SM OVC110 18/05 A2988 RMK AO2 SLP113 T01830050
KHTS 221751Z 19011G18KT 10SM CLR 18/05 A2988 RMK AO2 SLP113 T01830050 10183 20111 58027
KHTS 221651Z 17009G19KT 10SM CLR 18/06 A2992 RMK AO2 SLP128 T01780056
KHTS 221551Z 18009KT 10SM CLR 18/06 A2996 RMK AO2 SLP142 T01780061
KHTS 221451Z AUTO 16006KT 10SM CLR 15/06 A2996 RMK AO2 SLP142 T01500056 56017
KHTS 221351Z AUTO 13006KT 10SM CLR 13/06 A2996 RMK AO2 SLP143 T01280056
KHTS 221251Z 14004KT 10SM CLR 12/06 A2998 RMK AO2 SLP151 T01220056
KHTS 221151Z 17004KT 10SM BKN100 12/06 A3001 RMK AO2 SLP159 60000 T01220056 10139 20106 56004
KHTS 221051Z 19003KT 10SM BKN070 OVC090 12/06 A3001 RMK AO2 RAB16E25 SLP160 P0000 T01220061
KHTS 220951Z 21004KT 10SM FEW080 OVC110 13/06 A3001 RMK AO2 SLP160 T01280061
KHTS 220851Z 21004KT 10SM OVC100 13/06 A3002 RMK AO2 SLP163 T01280061 56009
KHTS 220751Z 20003KT 10SM OVC100 13/06 A3002 RMK AO2 SLP164 T01330061
KHTS 220651Z 20005KT 10SM OVC100 13/06 A3004 RMK AO2 SLP169 T01330061
KHTS 220551Z 16004KT 10SM OVC100 13/06 A3005 RMK AO2 SLP173 T01330061 10156 20128 58013
KHTS 220451Z 18006KT 10SM SCT095 13/06 A3007 RMK AO2 SLP181 T01330061 401670094
KHTS 220351Z AUTO 18007KT 10SM OVC095 14/07 A3008 RMK AO2 SLP185 T01390067
KHTS 220251Z AUTO 17005KT 10SM SCT090 14/06 A3009 RMK AO2 SLP186 T01390061 58000
KHTS 220151Z 17008KT 10SM BKN047 OVC090 14/06 A3009 RMK AO2 SLP186 T01440061
KHTS 220051Z 20005KT 10SM BKN043 OVC090 15/07 A3009 RMK AO2 SLP188 T01500072